sensor_id;sensor_type;location;lat;lon;timestamp;P1;durP1;ratioP1;P2;durP2;ratioP2
2267;SDS011;11052;43.338;25.502;2022-07-29T00:01:18;2.13;;;1.93;;
2267;SDS011;11052;43.338;25.502;2022-07-29T00:03:46;2.07;;;1.87;;
2267;SDS011;11052;43.338;25.502;2022-07-29T00:06:13;2.73;;;1.70;;
2267;SDS011;11052;43.338;25.502;2022-07-29T00:08:40;3.50;;;1.67;;
2267;SDS011;11052;43.338;25.502;2022-07-29T00:11:09;2.00;;;1.90;;
2267;SDS011;11052;43.338;25.502;2022-07-29T00:13:36;5.37;;;2.80;;
2267;SDS011;11052;43.338;25.502;2022-07-29T00:16:04;1.60;;;1.50;;
2267;SDS011;11052;43.338;25.502;2022-07-29T00:18:31;2.70;;;1.90;;
2267;SDS011;11052;43.338;25.502;2022-07-29T00:20:58;2.30;;;1.73;;
2267;SDS011;11052;43.338;25.502;2022-07-29T00:23:26;5.23;;;2.43;;
2267;SDS011;11052;43.338;25.502;2022-07-29T00:25:53;1.80;;;1.70;;
2267;SDS011;11052;43.338;25.502;2022-07-29T00:28:21;2.70;;;2.47;;
2267;SDS011;11052;43.338;25.502;2022-07-29T00:30:49;1.47;;;1.37;;
2267;SDS011;11052;43.338;25.502;2022-07-29T00:33:16;2.97;;;2.53;;
2267;SDS011;11052;43.338;25.502;2022-07-29T00:35:43;3.73;;;2.13;;
2267;SDS011;11052;43.338;25.502;2022-07-29T00:38:09;3.60;;;2.13;;
2267;SDS011;11052;43.338;25.502;2022-07-29T00:40:37;2.80;;;1.80;;
2267;SDS011;11052;43.338;25.502;2022-07-29T00:43:04;1.70;;;1.47;;
2267;SDS011;11052;43.338;25.502;2022-07-29T00:45:33;2.43;;;2.23;;
2267;SDS011;11052;43.338;25.502;2022-07-29T00:48:01;2.70;;;2.47;;
2267;SDS011;11052;43.338;25.502;2022-07-29T00:50:30;2.43;;;2.23;;
2267;SDS011;11052;43.338;25.502;2022-07-29T00:52:57;2.20;;;2.00;;
2267;SDS011;11052;43.338;25.502;2022-07-29T00:55:25;1.27;;;1.13;;
2267;SDS011;11052;43.338;25.502;2022-07-29T00:57:52;2.80;;;2.30;;
2267;SDS011;11052;43.338;25.502;2022-07-29T01:00:20;2.53;;;2.03;;
2267;SDS011;11052;43.338;25.502;2022-07-29T01:02:50;2.63;;;2.43;;
2267;SDS011;11052;43.338;25.502;2022-07-29T01:05:19;4.23;;;2.40;;
2267;SDS011;11052;43.338;25.502;2022-07-29T01:07:48;3.03;;;2.73;;
2267;SDS011;11052;43.338;25.502;2022-07-29T01:10:18;2.17;;;1.97;;
2267;SDS011;11052;43.338;25.502;2022-07-29T01:12:47;2.20;;;2.00;;
2267;SDS011;11052;43.338;25.502;2022-07-29T01:15:17;2.60;;;2.20;;
2267;SDS011;11052;43.338;25.502;2022-07-29T01:17:45;2.77;;;2.47;;
2267;SDS011;11052;43.338;25.502;2022-07-29T01:20:25;2.40;;;2.10;;
2267;SDS011;11052;43.338;25.502;2022-07-29T01:26:07;1.83;;;1.30;;
2267;SDS011;11052;43.338;25.502;2022-07-29T01:28:51;2.00;;;1.80;;
2267;SDS011;11052;43.338;25.502;2022-07-29T01:31:28;2.60;;;2.40;;
2267;SDS011;11052;43.338;25.502;2022-07-29T01:34:01;1.73;;;1.60;;
2267;SDS011;11052;43.338;25.502;2022-07-29T01:36:33;3.30;;;3.00;;
2267;SDS011;11052;43.338;25.502;2022-07-29T01:39:05;3.00;;;2.47;;
2267;SDS011;11052;43.338;25.502;2022-07-29T01:41:43;2.47;;;2.30;;
2267;SDS011;11052;43.338;25.502;2022-07-29T01:44:19;3.40;;;2.40;;
2267;SDS011;11052;43.338;25.502;2022-07-29T01:46:54;3.40;;;3.10;;
2267;SDS011;11052;43.338;25.502;2022-07-29T01:49:25;3.43;;;2.30;;
2267;SDS011;11052;43.338;25.502;2022-07-29T01:51:57;2.67;;;2.47;;
2267;SDS011;11052;43.338;25.502;2022-07-29T01:54:29;1.63;;;1.33;;
2267;SDS011;11052;43.338;25.502;2022-07-29T01:57:00;2.07;;;1.80;;
2267;SDS011;11052;43.338;25.502;2022-07-29T01:59:32;2.00;;;1.60;;
2267;SDS011;11052;43.338;25.502;2022-07-29T02:02:00;1.77;;;1.63;;
2267;SDS011;11052;43.338;25.502;2022-07-29T02:04:28;3.00;;;2.80;;
2267;SDS011;11052;43.338;25.502;2022-07-29T02:07:00;2.67;;;2.47;;
2267;SDS011;11052;43.338;25.502;2022-07-29T02:09:29;2.17;;;1.87;;
2267;SDS011;11052;43.338;25.502;2022-07-29T02:11:58;2.53;;;2.03;;
2267;SDS011;11052;43.338;25.502;2022-07-29T02:14:28;1.73;;;1.63;;
2267;SDS011;11052;43.338;25.502;2022-07-29T02:17:00;2.97;;;2.50;;
2267;SDS011;11052;43.338;25.502;2022-07-29T02:19:29;1.93;;;1.73;;
2267;SDS011;11052;43.338;25.502;2022-07-29T02:21:59;2.00;;;1.70;;
2267;SDS011;11052;43.338;25.502;2022-07-29T02:24:27;2.03;;;1.83;;
2267;SDS011;11052;43.338;25.502;2022-07-29T02:26:56;3.23;;;2.47;;
2267;SDS011;11052;43.338;25.502;2022-07-29T02:29:26;2.80;;;2.57;;
2267;SDS011;11052;43.338;25.502;2022-07-29T02:31:55;2.43;;;2.23;;
2267;SDS011;11052;43.338;25.502;2022-07-29T02:34:27;3.20;;;1.83;;
2267;SDS011;11052;43.338;25.502;2022-07-29T02:36:55;3.77;;;3.20;;
2267;SDS011;11052;43.338;25.502;2022-07-29T02:39:23;2.03;;;1.90;;
2267;SDS011;11052;43.338;25.502;2022-07-29T02:41:52;4.07;;;1.80;;
2267;SDS011;11052;43.338;25.502;2022-07-29T02:44:24;2.57;;;2.37;;
2267;SDS011;11052;43.338;25.502;2022-07-29T02:46:53;2.20;;;2.00;;
2267;SDS011;11052;43.338;25.502;2022-07-29T02:49:30;1.60;;;1.50;;
2267;SDS011;11052;43.338;25.502;2022-07-29T02:52:03;2.70;;;2.50;;
2267;SDS011;11052;43.338;25.502;2022-07-29T02:54:37;2.50;;;2.30;;
2267;SDS011;11052;43.338;25.502;2022-07-29T02:57:09;7.80;;;3.20;;
2267;SDS011;11052;43.338;25.502;2022-07-29T02:59:41;2.50;;;2.30;;
2267;SDS011;11052;43.338;25.502;2022-07-29T03:02:10;4.00;;;2.43;;
2267;SDS011;11052;43.338;25.502;2022-07-29T03:04:41;2.27;;;1.63;;
2267;SDS011;11052;43.338;25.502;2022-07-29T03:07:10;2.30;;;2.10;;
2267;SDS011;11052;43.338;25.502;2022-07-29T03:09:40;4.57;;;2.27;;
2267;SDS011;11052;43.338;25.502;2022-07-29T03:12:09;3.13;;;2.93;;
2267;SDS011;11052;43.338;25.502;2022-07-29T03:14:37;2.30;;;2.10;;
2267;SDS011;11052;43.338;25.502;2022-07-29T03:17:05;3.77;;;2.90;;
2267;SDS011;11052;43.338;25.502;2022-07-29T03:19:33;5.50;;;2.80;;
2267;SDS011;11052;43.338;25.502;2022-07-29T03:22:02;2.10;;;2.00;;
2267;SDS011;11052;43.338;25.502;2022-07-29T03:24:30;2.90;;;2.60;;
2267;SDS011;11052;43.338;25.502;2022-07-29T03:26:59;2.50;;;1.77;;
2267;SDS011;11052;43.338;25.502;2022-07-29T03:29:26;2.50;;;2.03;;
2267;SDS011;11052;43.338;25.502;2022-07-29T03:31:55;2.60;;;1.70;;
2267;SDS011;11052;43.338;25.502;2022-07-29T03:34:22;3.40;;;2.63;;
2267;SDS011;11052;43.338;25.502;2022-07-29T03:36:50;3.10;;;2.20;;
2267;SDS011;11052;43.338;25.502;2022-07-29T03:39:20;1.40;;;1.27;;
2267;SDS011;11052;43.338;25.502;2022-07-29T03:41:50;2.27;;;1.73;;
2267;SDS011;11052;43.338;25.502;2022-07-29T03:44:21;2.80;;;1.70;;
2267;SDS011;11052;43.338;25.502;2022-07-29T03:46:50;2.07;;;1.63;;
2267;SDS011;11052;43.338;25.502;2022-07-29T03:49:20;2.50;;;1.90;;
2267;SDS011;11052;43.338;25.502;2022-07-29T03:51:49;2.63;;;2.03;;
2267;SDS011;11052;43.338;25.502;2022-07-29T03:54:17;3.33;;;2.77;;
2267;SDS011;11052;43.338;25.502;2022-07-29T03:56:46;2.57;;;1.97;;
2267;SDS011;11052;43.338;25.502;2022-07-29T03:59:17;2.00;;;1.73;;
2267;SDS011;11052;43.338;25.502;2022-07-29T04:01:47;2.43;;;2.00;;
2267;SDS011;11052;43.338;25.502;2022-07-29T04:04:15;3.90;;;2.20;;
2267;SDS011;11052;43.338;25.502;2022-07-29T04:06:43;2.80;;;2.60;;
2267;SDS011;11052;43.338;25.502;2022-07-29T04:09:12;3.30;;;2.57;;
2267;SDS011;11052;43.338;25.502;2022-07-29T04:11:41;3.10;;;2.60;;
2267;SDS011;11052;43.338;25.502;2022-07-29T04:14:08;2.63;;;2.40;;
2267;SDS011;11052;43.338;25.502;2022-07-29T04:16:36;4.30;;;3.47;;
2267;SDS011;11052;43.338;25.502;2022-07-29T04:19:03;3.50;;;3.20;;
2267;SDS011;11052;43.338;25.502;2022-07-29T04:21:31;3.57;;;3.27;;
2267;SDS011;11052;43.338;25.502;2022-07-29T04:24:03;6.90;;;3.30;;
2267;SDS011;11052;43.338;25.502;2022-07-29T04:26:30;4.80;;;2.70;;
2267;SDS011;11052;43.338;25.502;2022-07-29T04:28:59;6.40;;;4.00;;
2267;SDS011;11052;43.338;25.502;2022-07-29T04:31:26;3.03;;;2.63;;
2267;SDS011;11052;43.338;25.502;2022-07-29T04:33:54;3.47;;;2.90;;
2267;SDS011;11052;43.338;25.502;2022-07-29T04:36:21;4.70;;;4.30;;
2267;SDS011;11052;43.338;25.502;2022-07-29T04:38:49;2.73;;;2.33;;
2267;SDS011;11052;43.338;25.502;2022-07-29T04:41:16;3.43;;;2.70;;
2267;SDS011;11052;43.338;25.502;2022-07-29T04:43:44;4.17;;;2.70;;
2267;SDS011;11052;43.338;25.502;2022-07-29T04:46:14;3.83;;;3.40;;
2267;SDS011;11052;43.338;25.502;2022-07-29T04:48:45;3.07;;;2.77;;
2267;SDS011;11052;43.338;25.502;2022-07-29T04:51:12;3.80;;;3.50;;
2267;SDS011;11052;43.338;25.502;2022-07-29T04:53:41;1.73;;;1.30;;
2267;SDS011;11052;43.338;25.502;2022-07-29T04:56:08;3.77;;;3.37;;
2267;SDS011;11052;43.338;25.502;2022-07-29T04:58:36;3.40;;;2.70;;
2267;SDS011;11052;43.338;25.502;2022-07-29T05:01:05;3.73;;;3.40;;
2267;SDS011;11052;43.338;25.502;2022-07-29T05:03:36;3.30;;;3.00;;
2267;SDS011;11052;43.338;25.502;2022-07-29T05:06:03;3.10;;;2.80;;
2267;SDS011;11052;43.338;25.502;2022-07-29T05:08:31;3.13;;;2.83;;
2267;SDS011;11052;43.338;25.502;2022-07-29T05:10:58;3.43;;;3.07;;
2267;SDS011;11052;43.338;25.502;2022-07-29T05:13:25;4.23;;;2.63;;
2267;SDS011;11052;43.338;25.502;2022-07-29T05:15:54;2.63;;;2.43;;
2267;SDS011;11052;43.338;25.502;2022-07-29T05:18:23;3.63;;;3.23;;
2267;SDS011;11052;43.338;25.502;2022-07-29T05:20:52;4.27;;;3.90;;
2267;SDS011;11052;43.338;25.502;2022-07-29T05:23:20;3.03;;;2.73;;
2267;SDS011;11052;43.338;25.502;2022-07-29T05:25:47;3.53;;;2.90;;
2267;SDS011;11052;43.338;25.502;2022-07-29T05:28:15;2.30;;;2.10;;
2267;SDS011;11052;43.338;25.502;2022-07-29T05:30:45;3.10;;;2.50;;
2267;SDS011;11052;43.338;25.502;2022-07-29T05:33:13;2.97;;;1.97;;
2267;SDS011;11052;43.338;25.502;2022-07-29T05:35:40;2.67;;;2.43;;
2267;SDS011;11052;43.338;25.502;2022-07-29T05:38:10;2.57;;;2.27;;
2267;SDS011;11052;43.338;25.502;2022-07-29T05:40:37;2.67;;;2.47;;
2267;SDS011;11052;43.338;25.502;2022-07-29T05:43:06;2.80;;;1.93;;
2267;SDS011;11052;43.338;25.502;2022-07-29T05:45:33;2.80;;;2.60;;
2267;SDS011;11052;43.338;25.502;2022-07-29T05:48:01;2.33;;;2.03;;
2267;SDS011;11052;43.338;25.502;2022-07-29T05:50:28;3.13;;;2.33;;
2267;SDS011;11052;43.338;25.502;2022-07-29T05:52:55;3.50;;;2.27;;
2267;SDS011;11052;43.338;25.502;2022-07-29T05:55:24;2.83;;;2.50;;
2267;SDS011;11052;43.338;25.502;2022-07-29T05:57:51;2.83;;;2.53;;
2267;SDS011;11052;43.338;25.502;2022-07-29T06:00:20;2.30;;;2.10;;
2267;SDS011;11052;43.338;25.502;2022-07-29T06:02:47;2.73;;;2.53;;
2267;SDS011;11052;43.338;25.502;2022-07-29T06:05:16;4.60;;;2.03;;
2267;SDS011;11052;43.338;25.502;2022-07-29T06:07:45;3.40;;;2.53;;
2267;SDS011;11052;43.338;25.502;2022-07-29T06:10:12;2.13;;;1.93;;
2267;SDS011;11052;43.338;25.502;2022-07-29T06:12:41;2.97;;;2.70;;
2267;SDS011;11052;43.338;25.502;2022-07-29T06:15:09;2.43;;;2.23;;
2267;SDS011;11052;43.338;25.502;2022-07-29T06:17:37;1.80;;;1.63;;
2267;SDS011;11052;43.338;25.502;2022-07-29T06:20:05;1.50;;;1.40;;
2267;SDS011;11052;43.338;25.502;2022-07-29T06:22:33;1.50;;;1.40;;
2267;SDS011;11052;43.338;25.502;2022-07-29T06:25:01;1.50;;;1.40;;
2267;SDS011;11052;43.338;25.502;2022-07-29T06:27:28;1.70;;;1.50;;
2267;SDS011;11052;43.338;25.502;2022-07-29T06:29:57;2.43;;;1.63;;
2267;SDS011;11052;43.338;25.502;2022-07-29T06:32:25;1.60;;;1.33;;
2267;SDS011;11052;43.338;25.502;2022-07-29T06:34:52;1.53;;;1.43;;
2267;SDS011;11052;43.338;25.502;2022-07-29T06:37:19;1.60;;;1.50;;
2267;SDS011;11052;43.338;25.502;2022-07-29T06:39:47;1.53;;;1.43;;
2267;SDS011;11052;43.338;25.502;2022-07-29T06:42:35;1.60;;;1.33;;
2267;SDS011;11052;43.338;25.502;2022-07-29T06:45:06;1.40;;;1.17;;
2267;SDS011;11052;43.338;25.502;2022-07-29T06:47:34;1.20;;;1.10;;
2267;SDS011;11052;43.338;25.502;2022-07-29T06:50:02;1.57;;;1.17;;
2267;SDS011;11052;43.338;25.502;2022-07-29T06:52:34;2.10;;;1.30;;
2267;SDS011;11052;43.338;25.502;2022-07-29T06:55:02;1.93;;;1.23;;
2267;SDS011;11052;43.338;25.502;2022-07-29T06:57:30;1.73;;;1.20;;
2267;SDS011;11052;43.338;25.502;2022-07-29T06:59:58;1.47;;;1.33;;
2267;SDS011;11052;43.338;25.502;2022-07-29T07:02:39;0.80;;;0.80;;
2267;SDS011;11052;43.338;25.502;2022-07-29T07:05:07;1.00;;;0.87;;
2267;SDS011;11052;43.338;25.502;2022-07-29T07:07:34;1.40;;;1.30;;
2267;SDS011;11052;43.338;25.502;2022-07-29T07:10:05;1.70;;;1.60;;
2267;SDS011;11052;43.338;25.502;2022-07-29T07:12:40;1.33;;;1.23;;
2267;SDS011;11052;43.338;25.502;2022-07-29T07:15:08;1.70;;;1.60;;
2267;SDS011;11052;43.338;25.502;2022-07-29T07:17:38;1.97;;;1.60;;
2267;SDS011;11052;43.338;25.502;2022-07-29T07:20:06;1.27;;;1.10;;
2267;SDS011;11052;43.338;25.502;2022-07-29T07:22:35;1.37;;;1.27;;
2267;SDS011;11052;43.338;25.502;2022-07-29T07:25:03;1.70;;;1.57;;
2267;SDS011;11052;43.338;25.502;2022-07-29T07:27:30;1.23;;;1.13;;
2267;SDS011;11052;43.338;25.502;2022-07-29T07:29:57;1.10;;;1.00;;
2267;SDS011;11052;43.338;25.502;2022-07-29T07:32:25;1.17;;;0.97;;
2267;SDS011;11052;43.338;25.502;2022-07-29T07:34:55;2.60;;;1.07;;
2267;SDS011;11052;43.338;25.502;2022-07-29T07:37:27;1.17;;;1.07;;
2267;SDS011;11052;43.338;25.502;2022-07-29T07:39:55;2.20;;;1.40;;
2267;SDS011;11052;43.338;25.502;2022-07-29T07:42:23;1.00;;;0.83;;
2267;SDS011;11052;43.338;25.502;2022-07-29T07:44:51;6.70;;;0.93;;
2267;SDS011;11052;43.338;25.502;2022-07-29T07:47:19;1.50;;;1.00;;
2267;SDS011;11052;43.338;25.502;2022-07-29T07:49:50;1.30;;;1.20;;
2267;SDS011;11052;43.338;25.502;2022-07-29T07:52:21;5.33;;;1.30;;
2267;SDS011;11052;43.338;25.502;2022-07-29T07:54:51;2.30;;;1.17;;
2267;SDS011;11052;43.338;25.502;2022-07-29T07:57:20;2.00;;;0.90;;
2267;SDS011;11052;43.338;25.502;2022-07-29T07:59:49;1.00;;;0.90;;
2267;SDS011;11052;43.338;25.502;2022-07-29T08:02:23;1.10;;;0.70;;
2267;SDS011;11052;43.338;25.502;2022-07-29T08:05:08;1.30;;;1.20;;
2267;SDS011;11052;43.338;25.502;2022-07-29T08:07:53;0.80;;;0.63;;
2267;SDS011;11052;43.338;25.502;2022-07-29T08:10:25;1.13;;;0.80;;
2267;SDS011;11052;43.338;25.502;2022-07-29T08:13:10;1.93;;;1.20;;
2267;SDS011;11052;43.338;25.502;2022-07-29T08:15:39;1.30;;;1.17;;
2267;SDS011;11052;43.338;25.502;2022-07-29T08:18:10;1.00;;;0.90;;
2267;SDS011;11052;43.338;25.502;2022-07-29T08:20:40;1.40;;;1.30;;
2267;SDS011;11052;43.338;25.502;2022-07-29T08:23:15;1.10;;;1.00;;
2267;SDS011;11052;43.338;25.502;2022-07-29T08:25:46;1.50;;;1.40;;
2267;SDS011;11052;43.338;25.502;2022-07-29T08:28:16;1.10;;;0.97;;
2267;SDS011;11052;43.338;25.502;2022-07-29T08:30:59;1.70;;;1.40;;
2267;SDS011;11052;43.338;25.502;2022-07-29T08:33:44;1.10;;;0.80;;
2267;SDS011;11052;43.338;25.502;2022-07-29T08:36:14;2.13;;;1.03;;
2267;SDS011;11052;43.338;25.502;2022-07-29T08:38:43;1.00;;;0.70;;
2267;SDS011;11052;43.338;25.502;2022-07-29T08:41:14;2.33;;;1.00;;
2267;SDS011;11052;43.338;25.502;2022-07-29T08:43:53;1.30;;;0.90;;
2267;SDS011;11052;43.338;25.502;2022-07-29T08:46:32;0.90;;;0.70;;
2267;SDS011;11052;43.338;25.502;2022-07-29T08:49:01;1.20;;;1.10;;
2267;SDS011;11052;43.338;25.502;2022-07-29T08:51:29;1.10;;;1.00;;
2267;SDS011;11052;43.338;25.502;2022-07-29T08:54:06;1.43;;;0.73;;
2267;SDS011;11052;43.338;25.502;2022-07-29T08:56:42;1.10;;;0.90;;
2267;SDS011;11052;43.338;25.502;2022-07-29T08:59:11;1.33;;;1.23;;
2267;SDS011;11052;43.338;25.502;2022-07-29T09:01:43;1.10;;;0.80;;
2267;SDS011;11052;43.338;25.502;2022-07-29T09:04:21;1.10;;;0.93;;
2267;SDS011;11052;43.338;25.502;2022-07-29T09:06:54;0.90;;;0.73;;
2267;SDS011;11052;43.338;25.502;2022-07-29T09:09:34;0.90;;;0.73;;
2267;SDS011;11052;43.338;25.502;2022-07-29T09:12:08;1.30;;;1.20;;
2267;SDS011;11052;43.338;25.502;2022-07-29T09:14:50;1.60;;;1.33;;
2267;SDS011;11052;43.338;25.502;2022-07-29T09:20:19;0.90;;;0.80;;
2267;SDS011;11052;43.338;25.502;2022-07-29T09:23:14;1.47;;;1.00;;
2267;SDS011;11052;43.338;25.502;2022-07-29T09:26:01;1.00;;;0.90;;
2267;SDS011;11052;43.338;25.502;2022-07-29T09:28:58;1.10;;;1.00;;
2267;SDS011;11052;43.338;25.502;2022-07-29T09:31:55;1.20;;;0.80;;
2267;SDS011;11052;43.338;25.502;2022-07-29T09:34:34;1.00;;;0.80;;
2267;SDS011;11052;43.338;25.502;2022-07-29T09:37:12;1.30;;;1.20;;
2267;SDS011;11052;43.338;25.502;2022-07-29T09:40:10;1.20;;;1.00;;
2267;SDS011;11052;43.338;25.502;2022-07-29T09:42:58;1.80;;;1.67;;
2267;SDS011;11052;43.338;25.502;2022-07-29T09:45:49;1.10;;;0.90;;
2267;SDS011;11052;43.338;25.502;2022-07-29T09:48:25;1.30;;;1.10;;
2267;SDS011;11052;43.338;25.502;2022-07-29T09:51:06;1.97;;;1.17;;
2267;SDS011;11052;43.338;25.502;2022-07-29T09:53:53;1.60;;;1.13;;
2267;SDS011;11052;43.338;25.502;2022-07-29T09:56:38;3.20;;;2.43;;
2267;SDS011;11052;43.338;25.502;2022-07-29T09:59:17;3.23;;;1.40;;
2267;SDS011;11052;43.338;25.502;2022-07-29T10:01:54;1.60;;;1.30;;
2267;SDS011;11052;43.338;25.502;2022-07-29T10:04:38;1.23;;;1.00;;
2267;SDS011;11052;43.338;25.502;2022-07-29T10:07:11;1.40;;;1.30;;
2267;SDS011;11052;43.338;25.502;2022-07-29T10:09:40;1.10;;;0.90;;
2267;SDS011;11052;43.338;25.502;2022-07-29T10:12:23;1.70;;;1.40;;
2267;SDS011;11052;43.338;25.502;2022-07-29T10:15:01;0.90;;;0.70;;
2267;SDS011;11052;43.338;25.502;2022-07-29T10:17:38;1.00;;;0.80;;
2267;SDS011;11052;43.338;25.502;2022-07-29T10:20:13;1.23;;;1.00;;
2267;SDS011;11052;43.338;25.502;2022-07-29T10:22:52;1.33;;;1.20;;
2267;SDS011;11052;43.338;25.502;2022-07-29T10:25:39;1.10;;;1.00;;
2267;SDS011;11052;43.338;25.502;2022-07-29T10:28:17;1.50;;;1.40;;
2267;SDS011;11052;43.338;25.502;2022-07-29T10:30:58;1.40;;;1.10;;
2267;SDS011;11052;43.338;25.502;2022-07-29T10:33:51;3.80;;;1.07;;
2267;SDS011;11052;43.338;25.502;2022-07-29T10:36:41;1.40;;;1.13;;
2267;SDS011;11052;43.338;25.502;2022-07-29T10:39:33;1.10;;;1.00;;
2267;SDS011;11052;43.338;25.502;2022-07-29T10:42:21;1.57;;;1.20;;
2267;SDS011;11052;43.338;25.502;2022-07-29T10:45:04;0.93;;;0.83;;
2267;SDS011;11052;43.338;25.502;2022-07-29T10:47:50;1.93;;;1.30;;
2267;SDS011;11052;43.338;25.502;2022-07-29T10:50:57;1.53;;;1.00;;
2267;SDS011;11052;43.338;25.502;2022-07-29T10:53:49;1.40;;;0.90;;
2267;SDS011;11052;43.338;25.502;2022-07-29T10:56:25;1.43;;;1.20;;
2267;SDS011;11052;43.338;25.502;2022-07-29T11:02:01;1.47;;;1.20;;
2267;SDS011;11052;43.338;25.502;2022-07-29T11:05:05;1.30;;;1.00;;
2267;SDS011;11052;43.338;25.502;2022-07-29T11:07:40;2.17;;;1.00;;
2267;SDS011;11052;43.338;25.502;2022-07-29T11:14:15;1.60;;;1.33;;
2267;SDS011;11052;43.338;25.502;2022-07-29T11:17:23;1.87;;;1.30;;
2267;SDS011;11052;43.338;25.502;2022-07-29T11:23:21;1.80;;;1.23;;
2267;SDS011;11052;43.338;25.502;2022-07-29T11:26:15;1.10;;;1.00;;
2267;SDS011;11052;43.338;25.502;2022-07-29T11:28:50;1.33;;;1.23;;
2267;SDS011;11052;43.338;25.502;2022-07-29T11:31:31;1.53;;;1.43;;
2267;SDS011;11052;43.338;25.502;2022-07-29T11:34:15;1.13;;;1.07;;
2267;SDS011;11052;43.338;25.502;2022-07-29T11:39:47;1.57;;;1.30;;
2267;SDS011;11052;43.338;25.502;2022-07-29T11:42:39;1.40;;;1.30;;
2267;SDS011;11052;43.338;25.502;2022-07-29T11:45:08;1.60;;;1.50;;
2267;SDS011;11052;43.338;25.502;2022-07-29T11:47:39;1.07;;;0.97;;
2267;SDS011;11052;43.338;25.502;2022-07-29T11:50:08;1.50;;;1.07;;
2267;SDS011;11052;43.338;25.502;2022-07-29T11:52:39;1.57;;;1.03;;
2267;SDS011;11052;43.338;25.502;2022-07-29T11:55:11;1.97;;;1.23;;
2267;SDS011;11052;43.338;25.502;2022-07-29T11:57:47;2.50;;;1.63;;
2267;SDS011;11052;43.338;25.502;2022-07-29T12:00:25;1.47;;;1.30;;
2267;SDS011;11052;43.338;25.502;2022-07-29T12:02:54;1.50;;;1.40;;
2267;SDS011;11052;43.338;25.502;2022-07-29T12:05:30;2.57;;;1.87;;
2267;SDS011;11052;43.338;25.502;2022-07-29T12:08:05;1.53;;;1.43;;
2267;SDS011;11052;43.338;25.502;2022-07-29T12:10:38;1.40;;;1.30;;
2267;SDS011;11052;43.338;25.502;2022-07-29T12:13:06;3.93;;;1.47;;
2267;SDS011;11052;43.338;25.502;2022-07-29T12:18:11;1.20;;;1.10;;
2267;SDS011;11052;43.338;25.502;2022-07-29T12:20:40;1.60;;;1.40;;
2267;SDS011;11052;43.338;25.502;2022-07-29T12:23:09;1.47;;;1.37;;
2267;SDS011;11052;43.338;25.502;2022-07-29T12:28:13;1.67;;;1.50;;
2267;SDS011;11052;43.338;25.502;2022-07-29T12:35:47;2.73;;;1.87;;
2267;SDS011;11052;43.338;25.502;2022-07-29T12:38:18;1.63;;;1.30;;
2267;SDS011;11052;43.338;25.502;2022-07-29T12:40:46;1.93;;;1.83;;
2267;SDS011;11052;43.338;25.502;2022-07-29T12:43:16;2.00;;;1.40;;
2267;SDS011;11052;43.338;25.502;2022-07-29T12:45:45;1.70;;;1.47;;
2267;SDS011;11052;43.338;25.502;2022-07-29T12:48:13;1.57;;;1.47;;
2267;SDS011;11052;43.338;25.502;2022-07-29T12:50:54;2.70;;;1.90;;
2267;SDS011;11052;43.338;25.502;2022-07-29T12:53:24;1.50;;;1.40;;
2267;SDS011;11052;43.338;25.502;2022-07-29T12:55:52;1.30;;;1.10;;
2267;SDS011;11052;43.338;25.502;2022-07-29T13:01:00;1.33;;;1.20;;
2267;SDS011;11052;43.338;25.502;2022-07-29T13:03:48;2.30;;;1.63;;
2267;SDS011;11052;43.338;25.502;2022-07-29T13:09:13;2.13;;;1.27;;
2267;SDS011;11052;43.338;25.502;2022-07-29T13:11:43;1.57;;;1.40;;
2267;SDS011;11052;43.338;25.502;2022-07-29T13:14:12;4.40;;;1.17;;
2267;SDS011;11052;43.338;25.502;2022-07-29T13:19:34;1.50;;;1.40;;
2267;SDS011;11052;43.338;25.502;2022-07-29T13:22:03;1.20;;;1.10;;
2267;SDS011;11052;43.338;25.502;2022-07-29T13:24:32;1.73;;;1.10;;
2267;SDS011;11052;43.338;25.502;2022-07-29T13:27:00;1.17;;;1.07;;
2267;SDS011;11052;43.338;25.502;2022-07-29T13:29:27;1.93;;;1.83;;
2267;SDS011;11052;43.338;25.502;2022-07-29T13:31:54;1.40;;;1.30;;
2267;SDS011;11052;43.338;25.502;2022-07-29T13:34:22;1.50;;;1.40;;
2267;SDS011;11052;43.338;25.502;2022-07-29T13:36:49;4.50;;;1.43;;
2267;SDS011;11052;43.338;25.502;2022-07-29T13:39:17;1.60;;;1.40;;
2267;SDS011;11052;43.338;25.502;2022-07-29T13:41:45;1.03;;;0.93;;
2267;SDS011;11052;43.338;25.502;2022-07-29T13:44:12;1.37;;;1.20;;
2267;SDS011;11052;43.338;25.502;2022-07-29T13:46:39;1.60;;;1.50;;
2267;SDS011;11052;43.338;25.502;2022-07-29T13:49:07;1.37;;;1.27;;
2267;SDS011;11052;43.338;25.502;2022-07-29T13:51:34;1.53;;;1.43;;
2267;SDS011;11052;43.338;25.502;2022-07-29T13:54:01;1.43;;;1.30;;
2267;SDS011;11052;43.338;25.502;2022-07-29T13:56:29;1.20;;;1.00;;
2267;SDS011;11052;43.338;25.502;2022-07-29T13:58:58;1.67;;;1.50;;
2267;SDS011;11052;43.338;25.502;2022-07-29T14:01:25;2.37;;;1.60;;
2267;SDS011;11052;43.338;25.502;2022-07-29T14:03:55;1.27;;;1.17;;
2267;SDS011;11052;43.338;25.502;2022-07-29T14:06:22;1.20;;;1.10;;
2267;SDS011;11052;43.338;25.502;2022-07-29T14:08:49;1.70;;;1.30;;
2267;SDS011;11052;43.338;25.502;2022-07-29T14:11:16;2.50;;;1.40;;
2267;SDS011;11052;43.338;25.502;2022-07-29T14:13:43;1.07;;;0.97;;
2267;SDS011;11052;43.338;25.502;2022-07-29T14:16:12;1.20;;;1.10;;
2267;SDS011;11052;43.338;25.502;2022-07-29T14:18:39;1.77;;;1.20;;
2267;SDS011;11052;43.338;25.502;2022-07-29T14:21:06;1.20;;;1.03;;
2267;SDS011;11052;43.338;25.502;2022-07-29T14:23:33;2.10;;;1.40;;
2267;SDS011;11052;43.338;25.502;2022-07-29T14:26:01;1.67;;;1.27;;
2267;SDS011;11052;43.338;25.502;2022-07-29T14:28:28;1.63;;;1.53;;
2267;SDS011;11052;43.338;25.502;2022-07-29T14:30:55;1.50;;;1.40;;
2267;SDS011;11052;43.338;25.502;2022-07-29T14:33:23;2.33;;;1.30;;
2267;SDS011;11052;43.338;25.502;2022-07-29T14:35:51;1.60;;;1.47;;
2267;SDS011;11052;43.338;25.502;2022-07-29T14:38:18;1.70;;;1.20;;
2267;SDS011;11052;43.338;25.502;2022-07-29T14:40:45;1.30;;;1.20;;
2267;SDS011;11052;43.338;25.502;2022-07-29T14:43:12;1.50;;;1.40;;
2267;SDS011;11052;43.338;25.502;2022-07-29T14:45:40;3.40;;;1.60;;
2267;SDS011;11052;43.338;25.502;2022-07-29T14:48:07;1.63;;;1.30;;
2267;SDS011;11052;43.338;25.502;2022-07-29T14:50:37;1.20;;;1.10;;
2267;SDS011;11052;43.338;25.502;2022-07-29T14:53:05;1.30;;;1.20;;
2267;SDS011;11052;43.338;25.502;2022-07-29T14:55:32;1.70;;;1.40;;
2267;SDS011;11052;43.338;25.502;2022-07-29T14:57:59;1.37;;;1.27;;
2267;SDS011;11052;43.338;25.502;2022-07-29T15:00:26;2.17;;;1.97;;
2267;SDS011;11052;43.338;25.502;2022-07-29T15:02:57;1.30;;;1.10;;
2267;SDS011;11052;43.338;25.502;2022-07-29T15:05:24;1.30;;;1.20;;
2267;SDS011;11052;43.338;25.502;2022-07-29T15:07:53;1.57;;;1.47;;
2267;SDS011;11052;43.338;25.502;2022-07-29T15:10:20;3.03;;;2.37;;
2267;SDS011;11052;43.338;25.502;2022-07-29T15:12:47;1.70;;;1.60;;
2267;SDS011;11052;43.338;25.502;2022-07-29T15:15:14;1.50;;;1.27;;
2267;SDS011;11052;43.338;25.502;2022-07-29T15:17:41;3.63;;;1.70;;
2267;SDS011;11052;43.338;25.502;2022-07-29T15:20:09;3.10;;;1.10;;
2267;SDS011;11052;43.338;25.502;2022-07-29T15:22:37;1.73;;;1.40;;
2267;SDS011;11052;43.338;25.502;2022-07-29T15:25:08;1.20;;;1.10;;
2267;SDS011;11052;43.338;25.502;2022-07-29T15:27:35;1.60;;;1.40;;
2267;SDS011;11052;43.338;25.502;2022-07-29T15:30:02;1.90;;;1.70;;
2267;SDS011;11052;43.338;25.502;2022-07-29T15:32:30;1.27;;;1.17;;
2267;SDS011;11052;43.338;25.502;2022-07-29T15:34:57;1.23;;;1.13;;
2267;SDS011;11052;43.338;25.502;2022-07-29T15:37:25;2.90;;;1.57;;
2267;SDS011;11052;43.338;25.502;2022-07-29T15:39:53;9.13;;;6.47;;
2267;SDS011;11052;43.338;25.502;2022-07-29T15:42:22;1.83;;;1.70;;
2267;SDS011;11052;43.338;25.502;2022-07-29T15:44:49;1.50;;;1.30;;
2267;SDS011;11052;43.338;25.502;2022-07-29T15:47:16;3.03;;;1.63;;
2267;SDS011;11052;43.338;25.502;2022-07-29T15:49:44;1.63;;;1.53;;
2267;SDS011;11052;43.338;25.502;2022-07-29T15:52:11;2.13;;;1.93;;